Aviation Digital Data Service (ADDS)

Output produced by METARs form (1423 UTC 10 July 2020)
found at http://www.aviationweather.gov/metar/data/
 
KLUL 101415Z AUTO 15005KT 10SM BKN009 OVC013 24/23 A3004 RMK A02 T02440234
KLUL 101355Z AUTO 13004KT 10SM OVC013 25/23 A3003 RMK A02 T02460232
KLUL 101335Z AUTO 13004KT 10SM OVC011 24/23 A3004 RMK A02 T02450232
KLUL 101315Z AUTO 10006KT 10SM OVC011 24/23 A3004 RMK A02 T02440231
KLUL 101255Z AUTO 11006KT 7SM OVC011 25/24 A3003 RMK A02 T02490241
KLUL 101235Z AUTO 12006KT 7SM BR BKN011 OVC031 25/25 A3003 RMK A02 T02540247
KLUL 101215Z AUTO 13004KT 7SM SCT011 OVC031 25/25 A3002 RMK A02 T02550246
KLUL 101155Z AUTO 11003KT 7SM SCT011 BKN031 OVC043 26/25 A3002 RMK A02 T02560246 10257 20244
KLUL 101135Z AUTO 00000KT 7SM BKN045 BKN055 25/24 A3001 RMK A02 T02550244
KLUL 101115Z AUTO 27005KT 7SM CLR 25/24 A2999 RMK A02 T02530243
KLUL 101055Z AUTO 26004KT 7SM SCT046 25/24 A2999 RMK A02 T02530244
KLUL 101035Z AUTO 26005KT 10SM BKN046 25/24 A2999 RMK A02 T02530243
KLUL 101015Z AUTO 25004KT 10SM BKN046 25/24 A2998 RMK A02 T02520243
KLUL 100955Z AUTO 24005KT 10SM SCT046 BKN060 BKN120 25/24 A2998 RMK A02 T02500242
KLUL 100935Z AUTO 26003KT 10SM BKN046 BKN060 BKN110 25/24 A2998 RMK A02 T02500241
KLUL 100915Z AUTO 26004KT 10SM SCT048 SCT065 SCT110 25/24 A2997 RMK A02 T02500241
KLUL 100855Z AUTO 23003KT 10SM SCT040 SCT050 SCT120 25/24 A2997 RMK A02 T02510242
KLUL 100835Z AUTO 00000KT 10SM SCT044 SCT065 25/24 A2997 RMK A02 T02500242
KLUL 100815Z AUTO 00000KT 10SM BKN044 OVC065 25/24 A2997 RMK A02 T02520243
KLUL 100755Z AUTO 00000KT 7SM BKN044 BKN050 25/24 A2997 RMK A02 T02490244
KLUL 100735Z AUTO 00000KT 10SM CLR 25/24 A2996 RMK A02 T02470242
KLUL 100715Z AUTO 00000KT 7SM BR CLR 24/24 A2996 RMK A02 T02450241
KLUL 100655Z AUTO 00000KT 7SM BR CLR 24/24 A2996 RMK A02 T02450241
KLUL 100635Z AUTO 00000KT 7SM BR CLR 25/24 A2996 RMK A02 T02460242
KLUL 100615Z AUTO 00000KT 7SM CLR 25/24 A2996 RMK A02 T02470242
KLUL 100555Z AUTO 00000KT 7SM CLR 25/24 A2996 RMK A02 T02480243 10314 20248
KLUL 100535Z AUTO 00000KT 7SM CLR 25/24 A2996 RMK A02 T02500245
KLUL 100515Z AUTO 00000KT 10SM CLR 25/25 A2996 RMK A02 T02540246
KLUL 100455Z AUTO 00000KT 10SM CLR 25/25 A2995 RMK A02 T02540248
KLUL 100435Z AUTO 00000KT 10SM CLR 25/25 A2995 RMK A02 T02540247
KLUL 100415Z AUTO 00000KT 10SM CLR 26/25 A2994 RMK A02 T02560249
KLUL 100355Z AUTO 00000KT 10SM CLR 26/25 A2994 RMK A02 T02570249
KLUL 100335Z AUTO 34003KT 10SM CLR 26/25 A2993 RMK A02 T02570250
KLUL 100315Z AUTO 00000KT 10SM CLR 26/25 A2993 RMK A02 T02610251
KLUL 100255Z AUTO 00000KT 10SM CLR 27/25 A2992 RMK A02 T02660252
KLUL 100235Z AUTO 00000KT 10SM CLR 27/25 A2992 RMK A02 T02660252
KLUL 100215Z AUTO 00000KT 10SM CLR 27/25 A2991 RMK A02 T02750253
KLUL 100155Z AUTO 00000KT 10SM CLR 28/25 A2991 RMK A02 T02780254
KLUL 100135Z AUTO 24004KT 10SM CLR 28/25 A2992 RMK A02 T02840249
KLUL 100115Z AUTO 25004KT 10SM CLR 29/25 A2992 RMK A02 T02890254
KLUL 100055Z AUTO 27004KT 10SM CLR 29/26 A2992 RMK A02 T02950255
KLUL 100035Z AUTO 26004KT 10SM CLR 30/25 A2992 RMK A02 T03030251
KLUL 100015Z AUTO 26004KT 10SM CLR 31/25 A2993 RMK A02 T03110248
KLUL 092355Z AUTO 26005KT 10SM CLR 31/25 A2993 RMK A02 T03140248 10333 20304 403330223
KLUL 092335Z AUTO 26005KT 10SM CLR 32/25 A2993 RMK A02 T03210246
KLUL 092315Z AUTO 27008KT 10SM CLR 33/24 A2992 RMK A02 T03250244
KLUL 092255Z AUTO 24007KT 10SM SCT044 SCT050 33/25 A2992 RMK A02 T03280248
KLUL 092235Z AUTO 24008KT 10SM SCT044 BKN050 33/25 A2992 RMK A02 T03300247
KLUL 092215Z AUTO 24005KT 10SM SCT042 SCT050 SCT060 32/25 A2993 RMK A02 T03240245
KLUL 092155Z AUTO 27007KT 10SM SCT039 SCT046 SCT060 33/25 A2993 RMK A02 T03270247
KLUL 092135Z AUTO 26006KT 10SM SCT038 BKN050 33/25 A2993 RMK A02 T03290250
KLUL 092115Z AUTO 21007KT 10SM SCT038 SCT044 SCT050 33/25 A2993 RMK A02 T03280246
KLUL 092055Z AUTO 24006KT 10SM SCT043 SCT050 32/25 A2993 RMK A02 T03230247
KLUL 092035Z AUTO 25003KT 10SM SCT036 SCT042 33/25 A2992 RMK A02 T03260247
KLUL 092015Z AUTO 29005KT 10SM SCT034 SCT040 SCT050 33/25 A2993 RMK A02 T03250249
KLUL 091955Z AUTO 26006KT 10SM SCT032 SCT040 SCT050 33/25 A2994 RMK A02 T03250250
KLUL 091935Z AUTO 24006KT 10SM BKN032 BKN043 32/25 A2995 RMK A02 T03230249
KLUL 091915Z AUTO 26008KT 10SM BKN030 32/25 A2995 RMK A02 T03210248
KLUL 091855Z AUTO 27005KT 10SM SCT030 SCT038 SCT050 32/25 A2995 RMK A02 T03170253
KLUL 091835Z AUTO 26007KT 10SM SCT030 SCT049 31/25 A2996 RMK A02 T03130247
KLUL 091815Z AUTO 23006KT 10SM SCT023 SCT029 31/25 A2996 RMK A02 T03070249
KLUL 091755Z AUTO 25006KT 10SM SCT024 31/25 A2997 RMK A02 T03070253 10309 20231
KLUL 091735Z AUTO 28007KT 10SM SCT034 30/25 A2998 RMK A02 T03030251
KLUL 091715Z AUTO 26006KT 10SM SCT022 OVC034 30/25 A2999 RMK A02 T03000251
KLUL 091655Z AUTO 24004KT 10SM SCT020 OVC027 29/25 A2999 RMK A02 T02920249
KLUL 091635Z AUTO 31007KT 10SM OVC027 29/25 A2999 RMK A02 T02930248
KLUL 091615Z AUTO 28007KT 7SM OVC021 29/25 A2999 RMK A02 T02880250
KLUL 091555Z AUTO 26008KT 10SM OVC019 29/25 A2998 RMK A02 T02850250
KLUL 091535Z AUTO 29007KT 10SM OVC015 28/25 A2998 RMK A02 T02800246
KLUL 091515Z AUTO 30007KT 10SM OVC015 28/25 A2997 RMK A02 T02800249
KLUL 091455Z AUTO 30008KT 10SM OVC013 27/25 A2997 RMK A02 T02710245
KLUL 091435Z AUTO 30006KT 10SM OVC011 27/25 A2997 RMK A02 T02700248
KLUL 091415Z AUTO 27006KT 10SM OVC011 26/25 A2997 RMK A02 T02650246
KLUL 091355Z AUTO 28007KT 10SM OVC009 26/24 A2998 RMK A02 T02590244
KLUL 091335Z AUTO 27006KT 7SM OVC007 26/24 A2998 RMK A02 T02560244
KLUL 091315Z AUTO 28004KT 7SM BKN007 OVC012 25/24 A2997 RMK A02 T02520241
KLUL 091255Z AUTO 28004KT 7SM BR BKN005 OVC012 25/24 A2997 RMK A02 T02460239
KLUL 091235Z AUTO 28005KT 5SM BR OVC005 24/24 A2998 RMK A02 T02410236
KLUL 091215Z AUTO 28005KT 7SM BR OVC005 24/23 A2997 RMK A02 T02360232
KLUL 091155Z AUTO 29003KT 7SM BKN005 23/23 A2997 RMK A02 T02300227 10231 20223 60001 70093
KLUL 091135Z AUTO 00000KT 7SM BR SCT005 23/22 A2996 RMK A02 T02280225
KLUL 091115Z AUTO 24003KT 7SM SCT005 23/22 A2995 RMK A02 T02270223
KLUL 091055Z AUTO 00000KT 10SM SCT007 22/22 A2995 RMK A02 T02250221
KLUL 091035Z AUTO 00000KT 10SM CLR 22/22 A2994 RMK A02 T02240220
KLUL 091015Z AUTO 00000KT 10SM CLR 22/22 A2994 RMK A02 T02240220
KLUL 090955Z AUTO 22003KT 10SM CLR 22/22 A2994 RMK A02 T02250220
KLUL 090935Z AUTO 21003KT 10SM CLR 23/22 A2994 RMK A02 T02260221
KLUL 090915Z AUTO 19003KT 10SM CLR 22/22 A2993 RMK A02 T02250221
KLUL 090855Z AUTO 18003KT 10SM SCT006 22/22 A2993 RMK A02 P0001 T02250221 60001
KLUL 090835Z AUTO 00000KT 10SM SCT004 SCT009 23/22 A2993 RMK A02 P0001 T02270222
KLUL 090815Z AUTO 20003KT 10SM SCT003 SCT010 23/22 A2993 RMK A02 T02260222
KLUL 090755Z AUTO 18003KT 10SM BKN003 BKN014 BKN031 23/22 A2993 RMK A02 T02270223
KLUL 090735Z AUTO 19003KT 10SM SCT003 SCT014 BKN024 23/22 A2993 RMK A02 T02270222
KLUL 090715Z AUTO 21003KT 10SM BKN003 OVC024 23/22 A2993 RMK A02 T02280223
KLUL 090655Z AUTO 24003KT 10SM OVC003 23/22 A2994 RMK A02 T02280223
KLUL 090635Z AUTO 22005KT 10SM OVC003 23/22 A2994 RMK A02 T02280223
KLUL 090615Z AUTO 22005KT 10SM OVC003 23/22 A2995 RMK A02 T02280223
KLUL 090555Z AUTO 20003KT 10SM OVC003 23/22 A2996 RMK A02 T02290224 10234 20228
KLUL 090535Z AUTO 22004KT 10SM BKN003 BKN030 OVC038 23/22 A2996 RMK A02 T02290224
KLUL 090515Z AUTO 17004KT 10SM OVC003 23/22 A2996 RMK A02 T02290225
KLUL 090455Z AUTO 23003KT 10SM BKN003 BKN019 OVC070 23/22 A2996 RMK A02 T02290225
KLUL 090435Z AUTO 21004KT 7SM BR BKN003 BKN018 BKN080 23/23 A2996 RMK A02 T02290225
KLUL 090415Z AUTO 18004KT 7SM BKN003 BKN050 BKN065 23/23 A2996 RMK A02 T02300226
KLUL 090355Z AUTO 18004KT 7SM BR BKN003 BKN041 BKN065 23/22 A2996 RMK A02 T02280224
KLUL 090335Z AUTO 18003KT 10SM OVC003 23/22 A2996 RMK A02 T02280224
KLUL 090315Z AUTO 18003KT 10SM OVC003 23/22 A2996 RMK A02 T02290224
KLUL 090255Z AUTO 16004KT 10SM BKN005 BKN110 23/23 A2996 RMK A02 T02300225
KLUL 090235Z AUTO 16003KT 10SM BKN005 BKN110 23/22 A2996 RMK A02 T02300224
KLUL 090215Z AUTO 18004KT 10SM OVC005 23/23 A2995 RMK A02 T02310225
KLUL 090155Z AUTO 18004KT 10SM BKN003 OVC110 23/23 A2995 RMK A02 T02300226
KLUL 090135Z AUTO 17004KT 10SM SCT003 OVC110 23/23 A2995 RMK A02 T02300226
KLUL 090115Z AUTO 17004KT 10SM SCT005 SCT110 23/23 A2994 RMK A02 T02310225
KLUL 090055Z AUTO 16003KT 10SM BKN005 23/23 A2994 RMK A02 T02320226
KLUL 090035Z AUTO 14003KT 10SM SCT005 23/23 A2994 RMK A02 T02330227
KLUL 090015Z AUTO 16004KT 10SM SCT005 23/23 A2994 RMK A02 T02330226
KLUL 082355Z AUTO 19005KT 10SM BKN005 23/23 A2994 RMK A02 T02340227 10285 20230 403000222 60090
KLUL 082335Z AUTO 00000KT 10SM SCT005 SCT036 SCT080 23/23 A2993 RMK A02 T02320225
KLUL 082315Z AUTO 22003KT 10SM -RA SCT007 SCT036 BKN070 23/23 A2993 RMK A02 T02320226
KLUL 082255Z AUTO 17004KT 10SM -RA SCT007 SCT035 OVC100 23/23 A2995 RMK A02 P0008 T02310226
KLUL 082235Z AUTO 17006KT 7SM -RA SCT006 SCT027 OVC110 23/23 A2997 RMK A02 P0006 T02320227
KLUL 082215Z AUTO 17006KT 7SM RA BR OVC110 23/23 A2999 RMK A02 P0003 T02320226
KLUL 082155Z AUTO 16003KT 10SM -RA BKN100 BKN120 23/23 A2998 RMK A02 P0004 T02310226
KLUL 082135Z AUTO 12005KT 7SM RA SCT060 SCT070 OVC090 23/22 A2998 RMK A02 P0003 T02320224
KLUL 082115Z AUTO 00000KT 10SM -RA SCT070 BKN090 OVC110 23/22 A2999 RMK A02 P0002 T02320223
KLUL 082055Z AUTO 00000KT 7SM RA BR SCT070 OVC110 23/22 A3000 RMK A02 P0006 T02320225 60077
KLUL 082035Z AUTO 10004KT 7SM -RA BR SCT024 SCT070 BKN110 23/23 A2999 RMK A02 P0004 T02330227
KLUL 082015Z AUTO 08004KT 10SM RA SCT070 SCT090 SCT110 23/23 A2999 RMK A02 T02340226
KLUL 081955Z AUTO 11004KT 10SM -RA SCT007 SCT065 BKN110 24/23 A2999 RMK A02 P0053 T02350228
KLUL 081935Z AUTO 02005KT 10SM -RA SCT009 BKN027 OVC120 23/23 A2999 RMK A02 P0052 T02330227
KLUL 081915Z AUTO 33009KT 2SM +RA BR BKN010 BKN021 OVC033 23/23 A3001 RMK A02 VIS 1 1/2V3 P0028 T02340229
KLUL 081855Z AUTO 27014KT 5SM +RA BR SCT031 SCT041 BKN050 24/23 A2999 RMK A02 P0010 T02420230
KLUL 081835Z AUTO 33012KT 10SM -RA SCT012 SCT022 BKN041 26/24 A2996 RMK A02 P0002 T02560237
KLUL 081815Z AUTO 32011KT 10SM SCT015 BKN022 OVC038 27/25 A2997 RMK A02 T02750255
KLUL 081755Z AUTO 36003KT 10SM BKN021 BKN030 OVC050 28/25 A2998 RMK A02 P0001 T02770254 10300 20226 60002
KLUL 081735Z AUTO 22007KT 7SM SCT030 SCT040 BKN050 29/25 A2997 RMK A02 P0001 T02860253
KLUL 081715Z AUTO 00000KT 10SM SCT030 SCT040 BKN070 29/25 A2998 RMK A02 T02890248
KLUL 081655Z AUTO 29003KT 10SM SCT021 SCT035 BKN070 30/25 A2999 RMK A02 T02980249
KLUL 081635Z AUTO 29003KT 10SM SCT017 BKN025 BKN032 29/25 A3000 RMK A02 T02920253
KLUL 081615Z AUTO 28003KT 10SM SCT014 SCT022 BKN033 29/25 A3001 RMK A02 T02880249
KLUL 081555Z AUTO 27004KT 10SM SCT011 BKN017 BKN060 28/25 A3002 RMK A02 T02840250
KLUL 081535Z AUTO 28003KT 10SM OVC011 27/25 A3003 RMK A02 T02750252
KLUL 081515Z AUTO 25005KT 10SM OVC007 27/25 A3003 RMK A02 T02740251
KLUL 081455Z AUTO 24005KT 10SM OVC005 26/25 A3003 RMK A02 T02630247
KLUL 081435Z AUTO 21006KT 10SM OVC005 25/24 A3003 RMK A02 T02550242
KLUL 081415Z AUTO 24005KT 7SM OVC005 25/24 A3003 RMK A02 T02500240
KLUL 081355Z AUTO 26007KT 10SM OVC005 25/24 A3003 RMK A02 T02490239
KLUL 081335Z AUTO 26004KT 7SM OVC005 24/24 A3002 RMK A02 T02420235
KLUL 081315Z AUTO 22004KT 10SM OVC007 24/23 A3002 RMK A02 T02400231
KLUL 081255Z AUTO 00000KT 10SM OVC009 23/23 A3002 RMK A02 T02330226
KLUL 081235Z AUTO 13003KT 3 1/2SM BR BKN009 23/22 A3001 RMK A02 T02280223
KLUL 081215Z AUTO 00000KT 3SM BR BKN009 OVC018 23/22 A3002 RMK A02 T02270223
KLUL 081155Z AUTO 00000KT 2 1/2SM BR SCT009 BKN018 23/22 A3001 RMK A02 T02260222 10229 20222 70104
KLUL 081135Z AUTO 00000KT 10SM SCT015 SCT023 22/22 A3001 RMK A02 T02250222
KLUL 081115Z AUTO 00000KT 10SM BKN010 22/22 A3001 RMK A02 T02240221
KLUL 081055Z AUTO 00000KT 10SM BKN012 22/22 A3001 RMK A02 T02220221
KLUL 081035Z AUTO 00000KT 10SM SCT001 SCT014 22/22 A3001 RMK A02 T02220221
KLUL 081015Z AUTO 24003KT 7SM BR BKN003 22/22 A3000 RMK A02 T02230221
KLUL 080955Z AUTO 00000KT 3/4SM BR OVC003 22/22 A3000 RMK A02 T02230222
KLUL 080935Z AUTO 00000KT 1 1/4SM BR OVC003 22/22 A2999 RMK A02 VIS 1V2 T02230222
KLUL 080915Z AUTO 00000KT 2SM BR OVC003 22/22 A2999 RMK A02 T02250223
KLUL 080855Z AUTO 23004KT 10SM OVC003 23/22 A2999 RMK A02 T02250223
KLUL 080835Z AUTO 22004KT 7SM OVC003 22/22 A2999 RMK A02 T02250223
KLUL 080815Z AUTO 00000KT 10SM OVC003 23/22 A2999 RMK A02 T02260224
KLUL 080755Z AUTO 00000KT 10SM OVC003 23/22 A2999 RMK A02 T02260224
KLUL 080735Z AUTO 00000KT 10SM OVC003 23/22 A2999 RMK A02 T02260224
KLUL 080715Z AUTO 23003KT 10SM OVC003 23/22 A2999 RMK A02 T02260223
KLUL 080655Z AUTO 24003KT 10SM SCT003 23/22 A2999 RMK A02 T02270223
KLUL 080635Z AUTO 21003KT 10SM CLR 23/22 A3000 RMK A02 T02270223
KLUL 080615Z AUTO 23003KT 10SM CLR 23/22 A3000 RMK A02 T02290224
KLUL 080555Z AUTO 21004KT 10SM CLR 23/22 A3000 RMK A02 T02280225 10236 20228 60004
KLUL 080535Z AUTO 22004KT 10SM CLR 23/22 A3002 RMK A02 T02280225
KLUL 080515Z AUTO 00000KT 10SM CLR 23/23 A3002 RMK A02 T02290225
KLUL 080455Z AUTO 00000KT 7SM CLR 23/23 A3002 RMK A02 T02310227
KLUL 080435Z AUTO 21003KT 10SM CLR 23/23 A3001 RMK A02 T02310227
KLUL 080415Z AUTO 23003KT 10SM CLR 23/23 A3002 RMK A02 T02310227
KLUL 080355Z AUTO 00000KT 10SM SCT003 SCT031 23/23 A3001 RMK A02 T02310227
KLUL 080335Z AUTO 00000KT 10SM SCT003 BKN031 23/23 A3001 RMK A02
KLUL 080315Z AUTO 24003KT 10SM SCT003 23/23 A3000 RMK A02 T02310228
KLUL 080255Z AUTO 00000KT 10SM BKN003 23/23 A2999 RMK A02 T02320228 60004
KLUL 080235Z AUTO 00000KT 10SM BKN003 23/23 A2998 RMK A02 T02310228
KLUL 080215Z AUTO 26003KT 10SM SCT003 23/23 A2998 RMK A02 T02310227
KLUL 080155Z AUTO 24004KT 10SM CLR 23/23 A2998 RMK A02 T02320228
KLUL 080135Z AUTO 24005KT 10SM CLR 23/23 A2997 RMK A02 T02330228
KLUL 080115Z AUTO 23004KT 10SM CLR 23/23 A2997 RMK A02 T02310227
KLUL 080055Z AUTO 24003KT 10SM SCT100 23/23 A2996 RMK A02 P0004 T02340227
KLUL 080035Z AUTO 00000KT 10SM -RA BKN110 23/23 A2997 RMK A02 P0004 T02330226
KLUL 080015Z AUTO 06004KT 10SM RA OVC110 23/23 A2997 RMK A02 P0002 T02330226
KLUL 072355Z AUTO 00000KT 10SM -RA SCT050 SCT070 BKN110 23/23 A2998 RMK A02 P0017 T02320226 10302 20230 403020230 60028
KLUL 072335Z AUTO 31004KT 7SM -RA SCT042 BKN060 BKN070 23/22 A2999 RMK A02 P0015 T02300224
KLUL 072315Z AUTO 35008KT 5SM RA BR SCT016 SCT030 OVC060 23/23 A3000 RMK A02 P0012 T02320225
KLUL 072255Z AUTO 32009G15KT 5SM RA BR SCT013 BKN032 OVC060 24/23 A3003 RMK A02 P0002 T02410230
KLUL 072235Z AUTO 24010KT 10SM SCT011 SCT033 BKN065 26/24 A3000 RMK A02 T02610238
KLUL 072215Z AUTO 20009KT 10SM SCT065 27/24 A3001 RMK A02 T02670239
KLUL 072155Z AUTO 20010KT 10SM CLR 25/24 A3000 RMK A02 P0002 T02550241
KLUL 072135Z AUTO 18005KT 10SM -RA SCT043 SCT075 BKN090 25/24 A3000 RMK A02 P0002 T02530235
KLUL 072115Z AUTO 23003KT 10SM RA BKN090 25/24 A3000 RMK A02 P0001 T02510237
KLUL 072055Z AUTO 23003KT 10SM SCT095 SCT120 25/24 A3000 RMK A02 P0002 T02520237 60004
KLUL 072035Z AUTO 00000KT 10SM SCT045 OVC095 25/23 A3000 RMK A02 P0002 T02470235
KLUL 072015Z AUTO 00000KT 10SM -RA SCT026 SCT046 OVC095 24/23 A3000 RMK A02 P0002 T02450233
KLUL 071955Z AUTO 20004KT 10SM RA BKN095 OVC120 24/23 A3000 RMK A02 P0002 T02420231
KLUL 071935Z AUTO 24004KT 10SM -RA SCT038 SCT070 BKN095 24/23 A2999 RMK A02 T02400227
KLUL 071915Z AUTO 23009KT 7SM HZ SCT024 SCT034 BKN050 25/22 A3000 RMK A02 T02510224
KLUL 071855Z AUTO 30007KT 7SM SCT022 BKN029 BKN036 29/25 A2999 RMK A02 T02910246
KLUL 071835Z AUTO 30007KT 10SM SCT017 BKN024 BKN032 29/25 A3000 RMK A02 T02940249
KLUL 071815Z AUTO 25004KT 10SM BKN017 BKN023 BKN090 29/25 A3000 RMK A02 T02940252
KLUL 071755Z AUTO 29005KT 10SM SCT015 SCT020 29/25 A3002 RMK A02 T02900254 10291 20238 60071
KLUL 071735Z AUTO 28005KT 10SM CLR 28/25 A3002 RMK A02 T02770251
KLUL 071715Z AUTO 33003KT 10SM SCT039 SCT050 SCT085 26/25 A3003 RMK A02 T02560246
KLUL 071655Z AUTO 31003KT 5SM -RA BR SCT050 BKN085 OVC090 24/24 A3003 RMK A02 P0050 T02430236
KLUL 071635Z AUTO 30005KT 5SM -RA BR SCT012 BKN055 OVC070 24/23 A3003 RMK A02 P0048 T02400232
KLUL 071615Z AUTO 32012KT 1 3/4SM +RA BR BKN015 OVC019 24/23 A3005 RMK A02 P0031 T02430232
KLUL 071555Z AUTO 25007KT 10SM BKN015 BKN023 OVC042 27/24 A3004 RMK A02 T02730242
KLUL 071535Z AUTO 28004KT 10SM SCT011 BKN034 OVC043 28/25 A3003 RMK A02 T02780247
KLUL 071515Z AUTO 29005KT 10SM BKN011 BKN019 BKN070 27/24 A3004 RMK A02 T02720245
KLUL 071455Z AUTO 29005KT 10SM BKN009 BKN015 OVC070 26/25 A3004 RMK A02 T02640247 60021
KLUL 071435Z AUTO 24003KT 7SM SCT007 OVC013 26/24 A3004 RMK A02 T02560244